Weather History for Pratt, KS

Change the Weather History Date:

Sunday, September 22, 2013

  Actual Average (KP28) Record (KP28)
Temperature  
Mean Temperature 66 °F 69 °F  
Max Temperature 80 °F 81 °F 99 °F (1921)
Min Temperature 51 °F 56 °F 32 °F (1995)
Degree Days  
Heating Degree Days 0 2  
Month to date heating degree days 12  
Since 1 July heating degree days 12  
Cooling Degree Days 0 5  
Month to date cooling degree days 187  
Year to date cooling degree days 1698  
Growing Degree Days 16 (Base 50)    
Moisture  
Dew Point 45 °F    
Average Humidity 49    
Maximum Humidity 82    
Minimum Humidity 28    
Precipitation  
Precipitation 0.00 in 0.08 in 2.57 in (1902)
Month to date precipitation 1.56  
Year to date precipitation 21.91  
Snow  
Snow 0.00 in 0.00 in - ()
Month to date snowfall 0.0  
Since 1 July snowfall 0.0  
Since 1 September snowfall 0.0  
Snow Depth -    
Sea Level Pressure  
Sea Level Pressure 29.88 in    
Wind  
Wind Speed 12 mph (SSE)    
Max Wind Speed 23 mph    
Max Gust Speed 30 mph    
Visibility 10 miles    
Events      
T = Trace of Precipitation, MM = Missing Value Source: NWS Daily Summary

Daily Weather History Graph

Daily Weather History Graph

Search for Another Location

Airport:

Trip Planner

Search our weather history database for the weather conditions in past years. The results will help you decide how hot, cold, wet, or windy it might be!

Date:

Astronomy

Sep. 22, 2013 Rise Set
Actual Time 7:23 AM CDT 7:31 PM CDT
Civil Twilight 6:56 AM CDT 7:57 PM CDT
Nautical Twilight 6:26 AM CDT 8:28 PM CDT
Astronomical Twilight 5:55 AM CDT 8:59 PM CDT
Moon 9:27 PM CDT 10:40 AM CDT
Length of Visible Light 13h 00m
Length of Day
12h 08m
Waning Gibbous, 88% of the Moon is Illuminated
Sep 22
Waning Gibbous
Sep 26
Last Quarter
Oct 4
New
Oct 11
First Quarter
Oct 18
Full

Hourly Weather History & Observations

Time (CDT) Temp. Dew Point Humidity Pressure Visibility Wind Dir Wind Speed Gust Speed Precip Events Conditions
12:15 AM 62.6 °F 46.4 °F 55% 29.94 in 10.0 mi South 8.1 mph - N/A   Clear
12:35 AM 60.8 °F 46.4 °F 59% 29.94 in 10.0 mi SSE 6.9 mph - N/A   Clear
12:55 AM 60.8 °F 48.2 °F 63% 29.93 in 10.0 mi SSE 8.1 mph - N/A   Clear
1:15 AM 60.8 °F 48.2 °F 63% 29.93 in 10.0 mi South 8.1 mph - N/A   Clear
1:35 AM 60.8 °F 48.2 °F 63% 29.93 in 10.0 mi South 8.1 mph - N/A   Clear
1:55 AM 60.8 °F 48.2 °F 63% 29.93 in 10.0 mi SSE 8.1 mph - N/A   Clear
2:15 AM 60.8 °F 48.2 °F 63% 29.93 in 10.0 mi South 9.2 mph - N/A   Clear
2:35 AM 59.0 °F 48.2 °F 67% 29.92 in 10.0 mi South 10.4 mph - N/A   Clear
2:55 AM 59.0 °F 48.2 °F 67% 29.92 in 10.0 mi South 10.4 mph - N/A   Clear
3:15 AM 59.0 °F 46.4 °F 63% 29.92 in 10.0 mi South 10.4 mph - N/A   Clear
3:35 AM 57.2 °F 48.2 °F 72% 29.92 in 10.0 mi South 9.2 mph - N/A   Clear
3:55 AM 57.2 °F 48.2 °F 72% 29.92 in 10.0 mi South 6.9 mph - N/A   Clear
4:15 AM 57.2 °F 46.4 °F 67% 29.92 in 10.0 mi South 3.5 mph - N/A   Clear
4:35 AM 55.4 °F 46.4 °F 72% 29.92 in 10.0 mi South 8.1 mph - N/A   Clear
4:55 AM 53.6 °F 46.4 °F 77% 29.93 in 10.0 mi South 6.9 mph - N/A   Clear
5:15 AM 51.8 °F 46.4 °F 82% 29.93 in 10.0 mi South 6.9 mph - N/A   Clear
5:35 AM 53.6 °F 46.4 °F 77% 29.93 in 10.0 mi South 6.9 mph - N/A   Clear
5:55 AM 55.4 °F 48.2 °F 77% 29.93 in 10.0 mi SSE 8.1 mph - N/A   Clear
6:15 AM 55.4 °F 46.4 °F 72% 29.92 in 10.0 mi SSE 10.4 mph - N/A   Clear
6:35 AM 55.4 °F 46.4 °F 72% 29.93 in 10.0 mi SSE 9.2 mph - N/A   Clear
6:55 AM 55.4 °F 46.4 °F 72% 29.93 in 10.0 mi SSE 8.1 mph - N/A   Clear
7:15 AM 55.4 °F 46.4 °F 72% 29.93 in 10.0 mi SSE 10.4 mph - N/A   Clear
7:35 AM 55.4 °F 46.4 °F 72% 29.93 in 10.0 mi SSE 10.4 mph - N/A   Clear
7:55 AM 55.4 °F 46.4 °F 72% 29.93 in 10.0 mi SSE 11.5 mph - N/A   Clear
8:15 AM 59.0 °F 46.4 °F 63% 29.93 in 10.0 mi South 11.5 mph - N/A   Clear
8:35 AM 60.8 °F 46.4 °F 59% 29.94 in 10.0 mi South 13.8 mph - N/A   Clear
8:55 AM 60.8 °F 46.4 °F 59% 29.94 in 10.0 mi South 15.0 mph 20.7 mph N/A   Clear
9:15 AM 62.6 °F 46.4 °F 55% 29.94 in 10.0 mi South 16.1 mph 21.9 mph N/A   Clear
9:35 AM 64.4 °F 46.4 °F 52% 29.95 in 10.0 mi South 17.3 mph 25.3 mph N/A   Clear
9:55 AM 66.2 °F 46.4 °F 49% 29.95 in 10.0 mi South 18.4 mph 25.3 mph N/A   Clear
10:15 AM 68.0 °F 46.4 °F 46% 29.95 in 10.0 mi South 23.0 mph 28.8 mph N/A   Clear
10:35 AM 68.0 °F 46.4 °F 46% 29.95 in 10.0 mi South 16.1 mph 23.0 mph N/A   Clear
10:55 AM 69.8 °F 46.4 °F 43% 29.94 in 10.0 mi South 21.9 mph 27.6 mph N/A   Clear
11:15 AM 69.8 °F 46.4 °F 43% 29.94 in 10.0 mi South 19.6 mph 26.5 mph N/A   Clear
11:35 AM 71.6 °F 44.6 °F 38% 29.93 in 10.0 mi South 20.7 mph 26.5 mph N/A   Clear
11:55 AM 73.4 °F 44.6 °F 36% 29.92 in 10.0 mi South 20.7 mph 26.5 mph N/A   Clear
12:15 PM 73.4 °F 44.6 °F 36% 29.91 in 10.0 mi South 19.6 mph - N/A   Clear
12:35 PM 73.4 °F 44.6 °F 36% 29.90 in 10.0 mi SSE 20.7 mph 26.5 mph N/A   Clear
12:55 PM 75.2 °F 44.6 °F 34% 29.90 in 10.0 mi South 18.4 mph 28.8 mph N/A   Clear
1:15 PM 77.0 °F 44.6 °F 32% 29.89 in 10.0 mi South 19.6 mph 28.8 mph N/A   Clear
1:35 PM 77.0 °F 42.8 °F 29% 29.89 in 10.0 mi SSE 23.0 mph 29.9 mph N/A   Clear
1:55 PM 77.0 °F 42.8 °F 29% 29.88 in 10.0 mi South 23.0 mph 27.6 mph N/A   Clear
2:15 PM 77.0 °F 42.8 °F 29% 29.87 in 10.0 mi South 18.4 mph 28.8 mph N/A   Clear
2:35 PM 78.8 °F 42.8 °F 28% 29.86 in 10.0 mi SSE 19.6 mph 29.9 mph N/A   Clear
2:55 PM 78.8 °F 42.8 °F 28% 29.85 in 10.0 mi SSE 19.6 mph 27.6 mph N/A   Clear
3:15 PM 78.8 °F 42.8 °F 28% 29.84 in 10.0 mi SSE 19.6 mph 28.8 mph N/A   Clear
3:35 PM 78.8 °F 42.8 °F 28% 29.84 in 10.0 mi South 18.4 mph 29.9 mph N/A   Clear
3:55 PM 78.8 °F 42.8 °F 28% 29.83 in 10.0 mi SSE 20.7 mph 26.5 mph N/A   Clear
4:15 PM 80.6 °F 44.6 °F 28% 29.82 in 10.0 mi South 20.7 mph 28.8 mph N/A   Clear
4:35 PM 78.8 °F 44.6 °F 30% 29.81 in 10.0 mi SSE 23.0 mph 26.5 mph N/A   Clear
4:55 PM 78.8 °F 44.6 °F 30% 29.81 in 10.0 mi South 18.4 mph 27.6 mph N/A   Clear
5:15 PM 80.6 °F 44.6 °F 28% 29.81 in 10.0 mi South 17.3 mph 23.0 mph N/A   Clear
5:35 PM 78.8 °F 44.6 °F 30% 29.80 in 10.0 mi SSE 20.7 mph 27.6 mph N/A   Clear
5:55 PM 78.8 °F 44.6 °F 30% 29.80 in 10.0 mi SSE 19.6 mph 27.6 mph N/A   Clear
6:15 PM 78.8 °F 44.6 °F 30% 29.80 in 10.0 mi SSE 19.6 mph 25.3 mph N/A   Clear
6:35 PM 77.0 °F 44.6 °F 32% 29.80 in 10.0 mi South 17.3 mph 24.2 mph N/A   Clear
6:55 PM 77.0 °F 44.6 °F 32% 29.80 in 10.0 mi SSE 19.6 mph 24.2 mph N/A   Clear
7:15 PM 75.2 °F 42.8 °F 31% 29.80 in 10.0 mi SSE 13.8 mph 20.7 mph N/A   Clear
7:35 PM 73.4 °F 42.8 °F 33% 29.80 in 10.0 mi SSE 13.8 mph 18.4 mph N/A   Clear
7:55 PM 71.6 °F 44.6 °F 38% 29.80 in 10.0 mi SSE 11.5 mph - N/A   Clear
8:15 PM 69.8 °F 44.6 °F 40% 29.79 in 10.0 mi SSE 12.7 mph - N/A   Clear
8:35 PM 69.8 °F 44.6 °F 40% 29.80 in 10.0 mi SSE 11.5 mph 16.1 mph N/A   Clear
8:55 PM 68.0 °F 44.6 °F 43% 29.80 in 10.0 mi SSE 12.7 mph - N/A   Clear
9:15 PM 68.0 °F 44.6 °F 43% 29.80 in 10.0 mi SSE 13.8 mph 18.4 mph N/A   Clear
9:35 PM 68.0 °F 44.6 °F 43% 29.80 in 10.0 mi SSE 16.1 mph 21.9 mph N/A   Clear
9:55 PM 68.0 °F 42.8 °F 40% 29.80 in 10.0 mi SSE 16.1 mph 21.9 mph N/A   Clear
10:15 PM 68.0 °F 42.8 °F 40% 29.80 in 10.0 mi SSE 15.0 mph 21.9 mph N/A   Clear
10:35 PM 66.2 °F 42.8 °F 43% 29.80 in 10.0 mi SSE 15.0 mph - N/A   Clear
10:55 PM 66.2 °F 42.8 °F 43% 29.81 in 10.0 mi South 13.8 mph 18.4 mph N/A   Clear
11:15 PM 64.4 °F 42.8 °F 45% 29.81 in 10.0 mi South 13.8 mph 19.6 mph N/A   Clear
11:35 PM 64.4 °F 44.6 °F 49% 29.81 in 10.0 mi SSE 12.7 mph 19.6 mph N/A   Clear
11:55 PM 62.6 °F 44.6 °F 52% 29.81 in 10.0 mi SSE 10.4 mph 16.1 mph N/A   Clear